Time;durP1;ratioP1;P1;durP2;ratioP2;P2;SDS_P1;SDS_P2;PMS_P1;PMS_P2;Temp;Humidity;BMP_temperature;BMP_pressure;BME280_temperature;BME280_humidity;BME280_pressure;Samples;Min_cycle;Max_cycle;Signal;HPM_P1;HPM_P2
2023/05/04 00:00:32;;;;;;;3.67;1.90;;;;;;;10.32;100.00;100261.50;4998604;28;20334;-78
2023/05/04 00:02:59;;;;;;;3.40;1.67;;;;;;;10.06;100.00;100259.50;4994189;28;20791;-78
2023/05/04 00:05:27;;;;;;;3.70;1.90;;;;;;;9.97;100.00;100264.72;5000852;28;20239;-77
2023/05/04 00:07:54;;;;;;;3.80;2.00;;;;;;;10.00;100.00;100308.75;4998003;28;20235;-77
2023/05/04 00:10:22;;;;;;;3.47;1.98;;;;;;;9.82;100.00;100304.19;4991501;28;20235;-77
2023/05/04 00:12:49;;;;;;;3.67;1.95;;;;;;;9.97;100.00;100322.81;5002504;28;20615;-77
2023/05/04 00:15:17;;;;;;;4.18;2.15;;;;;;;10.18;100.00;100341.53;5007816;28;20231;-77
2023/05/04 00:17:44;;;;;;;4.28;2.22;;;;;;;9.84;100.00;100334.13;4997708;28;20267;-77
2023/05/04 00:20:12;;;;;;;3.50;1.92;;;;;;;9.87;100.00;100364.09;4997305;28;20382;-77
2023/05/04 00:22:39;;;;;;;3.28;1.67;;;;;;;9.79;100.00;100359.63;4999525;28;20294;-77
2023/05/04 00:25:07;;;;;;;4.28;2.17;;;;;;;9.83;100.00;100382.56;5000322;28;20236;-78
2023/05/04 00:27:35;;;;;;;2.95;1.65;;;;;;;9.88;100.00;100379.09;4997937;28;20264;-78
2023/05/04 00:30:02;;;;;;;3.47;1.90;;;;;;;9.79;100.00;100378.09;5000653;28;20271;-78
2023/05/04 00:32:30;;;;;;;4.05;2.03;;;;;;;9.97;100.00;100390.63;5018495;28;20251;-78
2023/05/04 00:34:59;;;;;;;3.50;1.83;;;9.60;99.90;;;9.84;100.00;100389.59;5002725;28;20231;-78
2023/05/04 00:37:26;;;;;;;3.67;1.90;;;;;;;9.83;100.00;100377.28;4998721;28;20328;-78
2023/05/04 00:39:53;;;;;;;4.60;2.42;;;;;;;9.56;100.00;100378.72;5003282;28;20267;-78
2023/05/04 00:42:20;;;;;;;5.40;2.30;;;9.40;99.90;;;9.79;100.00;100401.88;4997645;28;20263;-78
2023/05/04 00:44:48;;;;;;;2.75;1.60;;;;;;;9.88;100.00;100400.22;4996800;28;20244;-77
2023/05/04 00:47:18;;;;;;;3.85;2.08;;;;;;;9.77;100.00;100372.81;5004490;28;20764;-77
2023/05/04 00:49:46;;;;;;;3.47;1.95;;;;;;;9.63;100.00;100374.41;5004806;28;20241;-77
2023/05/04 00:52:14;;;;;;;5.20;2.55;;;9.50;99.90;;;9.69;100.00;100395.59;5003658;28;20680;-77
2023/05/04 00:54:44;;;;;;;2.85;1.67;;;9.60;99.90;;;9.75;100.00;100402.72;5001112;28;20247;-77
2023/05/04 00:57:12;;;;;;;3.42;1.85;;;;;;;9.65;100.00;100382.34;4988049;28;20318;-77
2023/05/04 00:59:39;;;;;;;3.45;1.80;;;;;;;9.90;100.00;100392.31;4997727;28;20243;-78
2023/05/04 01:02:06;;;;;;;3.63;1.98;;;;;;;10.05;100.00;100395.13;5002409;28;20236;-78
2023/05/04 01:04:34;;;;;;;3.22;1.83;;;;;;;10.22;100.00;100401.50;4987395;28;20259;-78
2023/05/04 01:07:46;;;;;;;3.10;1.77;;;10.00;99.90;;;10.24;100.00;100335.44;4994186;28;20272;-78
2023/05/04 01:10:29;;;;;;;3.78;1.92;;;9.90;99.90;;;10.01;100.00;100329.91;4970321;28;20247;-78
2023/05/04 01:13:05;;;;;;;3.67;2.08;;;9.80;99.90;;;10.06;100.00;100341.41;5003406;28;20310;-78
2023/05/04 01:15:33;;;;;;;3.20;1.70;;;9.90;99.90;;;10.03;100.00;100346.66;5006610;28;20757;-78
2023/05/04 01:18:01;;;;;;;4.07;2.20;;;;;;;9.93;100.00;100311.34;5001639;28;20280;-78
2023/05/04 01:20:29;;;;;;;3.22;1.80;;;;;;;10.00;100.00;100316.69;5000543;28;20728;-78
2023/05/04 01:22:56;;;;;;;3.17;1.80;;;;;;;9.83;100.00;100308.59;4996086;28;20239;-78
2023/05/04 01:25:32;;;;;;;3.10;1.77;;;9.60;99.90;;;9.72;100.00;100302.31;4999993;28;20232;-78
2023/05/04 01:28:13;;;;;;;4.82;2.38;;;9.50;99.90;;;9.57;100.00;100326.81;5002702;28;20272;-78
2023/05/04 01:30:48;;;;;;;4.10;2.05;;;9.30;99.90;;;9.39;100.00;100345.97;4995221;28;20292;-78
2023/05/04 01:33:17;;;;;;;6.38;3.10;;;9.00;99.90;;;9.16;100.00;100379.97;4997835;28;20238;-78
2023/05/04 01:35:45;;;;;;;5.53;2.35;;;9.10;99.90;;;9.35;100.00;100411.88;4998467;28;20247;-77
2023/05/04 01:38:12;;;;;;;6.78;2.80;;;;;;;9.55;100.00;100427.09;5001473;28;20258;-78
2023/05/04 01:40:40;;;;;;;4.97;2.30;;;;;;;9.48;100.00;100424.38;5007940;28;20235;-78
2023/05/04 01:43:07;;;;;;;5.45;2.38;;;;;;;9.53;100.00;100405.09;4988916;28;20662;-78
2023/05/04 01:45:34;;;;;;;4.70;2.10;;;;;;;9.67;100.00;100399.09;5005537;28;20298;-78
2023/05/04 01:48:02;;;;;;;6.05;2.35;;;;;;;9.69;100.00;100387.66;5003199;28;20305;-78
2023/05/04 01:50:29;;;;;;;5.28;2.25;;;;;;;9.68;100.00;100377.97;5007566;28;20327;-78
2023/05/04 01:52:57;;;;;;;4.88;2.05;;;;;;;9.58;100.00;100366.44;5002760;28;20314;-78
2023/05/04 01:55:24;;;;;;;5.55;2.42;;;;;;;9.51;100.00;100346.09;5000068;28;20306;-78
2023/05/04 01:57:51;;;;;;;5.95;2.58;;;;;;;9.55;100.00;100347.91;4999817;28;20288;-78
2023/05/04 02:00:19;;;;;;;5.00;2.17;;;;;;;9.51;100.00;100361.94;5004175;28;20263;-78
2023/05/04 02:02:46;;;;;;;4.88;2.28;;;;;;;9.43;100.00;100349.53;5003378;28;20327;-78
2023/05/04 02:05:14;;;;;;;4.85;2.15;;;;;;;9.45;100.00;100351.31;5003946;28;20688;-78
2023/05/04 02:07:41;;;;;;;4.32;2.15;;;;;;;9.38;100.00;100346.81;4995024;28;20298;-77
2023/05/04 02:10:09;;;;;;;4.53;2.13;;;;;;;9.39;100.00;100359.16;5010684;28;20286;-77
2023/05/04 02:12:36;;;;;;;4.13;2.00;;;;;;;9.40;100.00;100376.75;4969297;28;20243;-77
2023/05/04 02:15:04;;;;;;;5.05;2.35;;;;;;;9.40;100.00;100368.84;4992831;28;20234;-78
2023/05/04 02:17:31;;;;;;;4.43;2.13;;;;;;;9.37;100.00;100374.09;5001091;28;20591;-78
2023/05/04 02:19:59;;;;;;;5.05;2.50;;;;;;;9.32;100.00;100364.34;4998457;28;20235;-78
2023/05/04 02:22:26;;;;;;;5.72;2.70;;;;;;;9.25;100.00;100392.41;5000299;28;20240;-78
2023/05/04 02:24:54;;;;;;;5.30;2.15;;;;;;;9.30;100.00;100403.91;5000904;28;20232;-78
2023/05/04 02:27:21;;;;;;;4.15;1.92;;;;;;;9.22;100.00;100419.63;4998369;28;20240;-78
2023/05/04 02:29:48;;;;;;;5.55;2.35;;;;;;;8.93;100.00;100442.91;5002845;28;20256;-77
2023/05/04 02:32:16;;;;;;;5.72;2.70;;;;;;;8.78;100.00;100455.84;5006901;28;20228;-77
2023/05/04 02:34:43;;;;;;;4.20;1.90;;;;;;;8.85;100.00;100486.72;5001082;28;20746;-77
2023/05/04 02:37:10;;;;;;;3.53;1.73;;;;;;;8.90;100.00;100492.97;4989016;28;20283;-78
2023/05/04 02:39:38;;;;;;;4.57;2.08;;;;;;;8.92;100.00;100514.09;4996605;28;20239;-78
2023/05/04 02:42:05;;;;;;;4.35;2.00;;;;;;;8.76;100.00;100505.03;4989675;28;20316;-78
2023/05/04 02:44:33;;;;;;;4.55;2.20;;;;;;;8.80;100.00;100522.69;4983285;28;20256;-78
2023/05/04 02:47:00;;;;;;;6.72;3.03;;;;;;;8.84;100.00;100544.72;4996070;28;20236;-78
2023/05/04 02:49:28;;;;;;;4.50;2.17;;;;;;;8.64;100.00;100532.06;4984332;28;20265;-78
2023/05/04 02:51:55;;;;;;;6.40;2.72;;;;;;;8.65;100.00;100544.38;4989605;28;20254;-78
2023/05/04 02:54:23;;;;;;;4.80;2.08;;;;;;;8.51;100.00;100548.50;4984866;28;20268;-78
2023/05/04 02:56:50;;;;;;;6.20;2.72;;;;;;;8.57;100.00;100563.56;4991545;28;20232;-78
2023/05/04 02:59:18;;;;;;;5.55;2.40;;;;;;;8.53;100.00;100574.91;4990890;28;20263;-78
2023/05/04 03:01:46;;;;;;;6.32;2.88;;;;;;;8.39;100.00;100585.16;4990045;28;20250;-78
2023/05/04 03:04:13;;;;;;;5.00;2.05;;;;;;;8.18;100.00;100590.84;4985387;28;20241;-78
2023/05/04 03:06:41;;;;;;;3.75;1.92;;;;;;;8.15;100.00;100587.25;4981600;28;20236;-78
2023/05/04 03:09:08;;;;;;;5.78;2.40;;;;;;;8.18;100.00;100600.50;4990189;28;20231;-78
2023/05/04 03:11:36;;;;;;;4.93;2.08;;;;;;;8.18;100.00;100618.94;4982659;28;20386;-78
2023/05/04 03:14:03;;;;;;;4.57;2.00;;;;;;;8.09;100.00;100621.38;4990698;28;20310;-78
2023/05/04 03:16:31;;;;;;;4.55;2.13;;;;;;;8.02;100.00;100629.13;4990157;28;20259;-78
2023/05/04 03:18:58;;;;;;;5.15;2.20;;;;;;;8.02;100.00;100639.69;4990697;28;20259;-78
2023/05/04 03:21:25;;;;;;;4.80;2.20;;;;;;;7.87;100.00;100641.97;4990287;28;20302;-78
2023/05/04 03:23:53;;;;;;;3.90;1.83;;;;;;;7.80;100.00;100657.53;4990501;28;20244;-77
2023/05/04 03:26:20;;;;;;;5.97;2.58;;;;;;;7.87;100.00;100663.03;5004481;28;20309;-77
2023/05/04 03:28:48;;;;;;;4.50;1.83;;;;;;;8.02;100.00;100681.81;5005781;28;20279;-78
2023/05/04 03:31:15;;;;;;;5.03;2.17;;;;;;;7.88;100.00;100674.44;4989974;28;20260;-78
2023/05/04 03:33:43;;;;;;;5.78;2.38;;;;;;;8.00;100.00;100690.53;4988079;28;20376;-77
2023/05/04 03:36:10;;;;;;;5.78;2.35;;;;;;;7.94;100.00;100714.09;4997900;28;20262;-77
2023/05/04 03:38:37;;;;;;;4.72;2.10;;;;;;;7.89;100.00;100718.34;4972292;28;20244;-77
2023/05/04 03:41:05;;;;;;;4.95;2.17;;;;;;;7.88;100.00;100728.00;4973325;28;20270;-77
2023/05/04 03:43:32;;;;;;;5.50;2.30;;;;;;;7.71;100.00;100717.00;4990146;28;20233;-78
2023/05/04 03:46:00;;;;;;;5.13;2.28;;;;;;;8.03;100.00;100743.28;4994104;28;20244;-77
2023/05/04 03:48:27;;;;;;;5.38;2.22;;;;;;;7.84;100.00;100736.69;4993449;28;20287;-77
2023/05/04 03:50:55;;;;;;;4.82;1.98;;;;;;;8.01;100.00;100742.34;4994370;28;20271;-77
2023/05/04 03:53:22;;;;;;;5.50;2.40;;;;;;;8.09;100.00;100742.53;4992138;28;20272;-77
2023/05/04 03:55:49;;;;;;;5.60;2.30;;;;;;;7.90;100.00;100726.28;4994184;28;20247;-77
2023/05/04 03:58:17;;;;;;;5.03;2.10;;;;;;;8.03;100.00;100746.81;4993948;28;20244;-77
2023/05/04 04:00:44;;;;;;;5.13;2.30;;;;;;;8.17;100.00;100751.50;4988728;28;20256;-77
2023/05/04 04:03:12;;;;;;;5.55;2.40;;;;;;;7.89;100.00;100739.44;4988573;28;20252;-77
2023/05/04 04:05:39;;;;;;;4.35;2.03;;;;;;;7.99;100.00;100723.00;4988025;28;20318;-77
2023/05/04 04:08:07;;;;;;;5.20;2.30;;;;;;;8.11;100.00;100746.09;4992514;28;20231;-78
2023/05/04 04:10:35;;;;;;;4.93;2.22;;;;;;;8.15;100.00;100758.50;4993469;28;20274;-78
2023/05/04 04:13:03;;;;;;;5.53;2.17;;;;;;;7.83;100.00;100755.97;4993085;28;20225;-77
2023/05/04 04:15:30;;;;;;;6.10;2.30;;;;;;;7.97;100.00;100772.09;4989576;28;20291;-77
2023/05/04 04:17:58;;;;;;;5.90;2.53;;;;;;;8.09;100.00;100788.22;4993730;28;20236;-77
2023/05/04 04:20:28;;;;;;;6.80;2.88;;;7.70;99.90;;;8.36;100.00;100790.66;4991725;28;20709;-77
2023/05/04 04:22:55;;;;;;;7.05;2.75;;;;;;;8.36;100.00;100763.41;4991475;28;20295;-77
2023/05/04 04:25:23;;;;;;;7.15;2.78;;;;;;;8.41;100.00;100754.75;4994538;28;20763;-77
2023/05/04 04:27:50;;;;;;;5.50;2.03;;;;;;;8.37;100.00;100747.63;4996518;28;20241;-77
2023/05/04 04:30:18;;;;;;;6.93;2.85;;;;;;;8.38;100.00;100751.16;4993319;28;20243;-78
2023/05/04 04:32:45;;;;;;;6.53;2.65;;;;;;;8.41;100.00;100752.13;4992716;28;20252;-78
2023/05/04 04:35:13;;;;;;;5.03;2.03;;;;;;;8.43;100.00;100752.16;4988844;28;20232;-78
2023/05/04 04:37:41;;;;;;;6.05;2.33;;;;;;;8.48;100.00;100761.94;4993663;28;20270;-78
2023/05/04 04:40:09;;;;;;;7.68;3.05;;;;;;;8.49;100.00;100769.00;4993339;28;20267;-78
2023/05/04 04:42:36;;;;;;;5.93;2.22;;;;;;;8.47;100.00;100783.88;4992668;28;20247;-79
2023/05/04 04:45:04;;;;;;;6.15;2.38;;;8.40;99.90;;;8.45;100.00;100776.78;4992254;28;20262;-77
2023/05/04 04:47:31;;;;;;;5.78;2.40;;;8.30;99.90;;;8.47;100.00;100783.00;4992627;28;20244;-77
2023/05/04 04:49:59;;;;;;;6.93;2.72;;;;;;;8.47;100.00;100786.50;4998609;28;20247;-77
2023/05/04 04:52:26;;;;;;;7.30;2.92;;;;;;;8.47;100.00;100780.34;4994563;28;20253;-77
2023/05/04 04:54:54;;;;;;;6.10;2.42;;;8.30;99.90;;;8.55;100.00;100798.13;4993580;28;20231;-77
2023/05/04 04:57:21;;;;;;;6.88;2.70;;;;;;;8.41;100.00;100786.38;4992255;28;20327;-78
2023/05/04 04:59:48;;;;;;;8.73;3.42;;;;;;;8.36;100.00;100777.47;4997492;28;20319;-78
2023/05/04 05:02:16;;;;;;;10.52;3.88;;;;;;;8.43;100.00;100800.47;4994358;28;20724;-78
2023/05/04 05:04:43;;;;;;;2.72;1.20;;;;;;;8.44;100.00;100823.34;4985355;28;20241;-77
2023/05/04 05:07:11;;;;;;;7.13;2.85;;;;;;;8.54;100.00;100837.63;4997878;28;20228;-77
2023/05/04 05:09:38;;;;;;;5.95;2.40;;;;;;;8.62;100.00;100846.63;4998918;28;20263;-77
2023/05/04 05:12:06;;;;;;;6.95;3.00;;;;;;;8.72;100.00;100853.88;4991548;28;20228;-80
2023/05/04 05:14:34;;;;;;;5.55;2.35;;;;;;;8.61;100.00;100843.09;4989776;28;20232;-79
2023/05/04 05:17:04;;;;;;;5.05;2.20;;;;;;;8.58;100.00;100836.84;4986264;28;20248;-78
2023/05/04 05:19:35;;;;;;;6.68;2.65;;;;;;;8.56;100.00;100834.19;4988537;28;20236;-78
2023/05/04 05:22:03;;;;;;;5.93;2.55;;;8.40;99.90;;;8.57;100.00;100841.22;4992471;28;20228;-78
2023/05/04 05:24:31;;;;;;;5.40;2.42;;;;;;;8.67;100.00;100860.78;4992091;28;20315;-78
2023/05/04 05:26:59;;;;;;;5.72;2.35;;;;;;;8.64;100.00;100851.06;4998703;28;20256;-78
2023/05/04 05:29:26;;;;;;;6.30;2.47;;;;;;;8.68;100.00;100848.50;4991732;28;20236;-78
2023/05/04 05:31:54;;;;;;;5.80;2.58;;;;;;;8.72;100.00;100855.63;4986804;28;20244;-79
2023/05/04 05:34:21;;;;;;;7.35;2.90;;;;;;;8.84;100.00;100871.72;4983098;28;20292;-78
2023/05/04 05:36:49;;;;;;;6.40;2.45;;;;;;;8.86;100.00;100870.00;4989779;28;20236;-78
2023/05/04 05:39:16;;;;;;;5.40;2.20;;;;;;;8.87;100.00;100870.06;4989704;28;20287;-78
2023/05/04 05:41:44;;;;;;;6.03;2.50;;;;;;;8.89;100.00;100878.00;4989097;28;20323;-79
2023/05/04 05:44:11;;;;;;;6.90;3.60;;;;;;;9.02;100.00;100882.69;4989869;28;20796;-78
2023/05/04 05:46:39;;;;;;;5.80;2.33;;;;;;;9.07;100.00;100872.25;4984894;28;20243;-79
2023/05/04 05:49:07;;;;;;;4.45;2.05;;;;;;;9.23;100.00;100885.84;4998828;28;20322;-84
2023/05/04 05:51:34;;;;;;;8.35;3.33;;;;;;;9.26;100.00;100877.09;4989857;28;20264;-78
2023/05/04 05:54:01;;;;;;;6.85;2.80;;;;;;;9.43;100.00;100885.38;4979727;28;20299;-79
2023/05/04 05:56:29;;;;;;;5.40;2.25;;;;;;;9.49;100.00;100888.13;4985283;28;20260;-78
2023/05/04 05:58:56;;;;;;;5.30;2.30;;;;;;;9.52;100.00;100889.09;4992002;28;20251;-78
2023/05/04 06:01:23;;;;;;;6.65;2.70;;;;;;;9.63;100.00;100878.75;4990516;28;20264;-78
2023/05/04 06:03:51;;;;;;;5.30;2.38;;;;;;;9.74;100.00;100879.84;4988907;28;20242;-77
2023/05/04 06:06:19;;;;;;;7.00;3.22;;;;;;;9.89;100.00;100876.59;4987268;28;20243;-78
2023/05/04 06:08:46;;;;;;;5.78;2.42;;;;;;;10.03;100.00;100879.50;4993269;28;20634;-79
2023/05/04 06:11:14;;;;;;;7.15;3.08;;;;;;;10.08;100.00;100860.22;4994332;28;20607;-78
2023/05/04 06:13:41;;;;;;;5.68;2.22;;;;;;;10.19;100.00;100858.66;4992814;28;20236;-78
2023/05/04 06:16:08;;;;;;;5.45;2.28;;;;;;;10.33;100.00;100844.81;4993478;28;20256;-78
2023/05/04 06:18:36;;;;;;;4.50;2.00;;;;;;;10.37;100.00;100846.63;4991607;28;20235;-77
2023/05/04 06:21:03;;;;;;;4.45;1.95;;;;;;;10.59;100.00;100838.22;4991673;28;20320;-78
2023/05/04 06:23:31;;;;;;;3.88;1.73;;;;;;;10.64;100.00;100825.06;4990718;28;20232;-77
2023/05/04 06:25:59;;;;;;;5.10;2.15;;;;;;;10.70;100.00;100820.75;4991578;28;20240;-77
2023/05/04 06:28:26;;;;;;;5.22;2.20;;;;;;;10.70;100.00;100791.66;4991079;28;20278;-78
2023/05/04 06:30:53;;;;;;;5.75;2.33;;;;;;;10.79;100.00;100759.13;4991452;28;20581;-78
2023/05/04 06:33:21;;;;;;;4.78;2.00;;;;;;;10.99;100.00;100765.56;4972898;28;20275;-78
2023/05/04 06:35:48;;;;;;;4.75;2.00;;;;;;;11.10;100.00;100753.38;4990208;28;20240;-78
2023/05/04 06:38:15;;;;;;;6.43;2.90;;;;;;;11.07;100.00;100736.56;4998840;28;20674;-78
2023/05/04 06:40:43;;;;;;;6.97;3.03;;;;;;;11.00;100.00;100713.53;4990519;28;20328;-77
2023/05/04 06:43:10;;;;;;;6.10;2.70;;;;;;;11.39;100.00;100737.81;4990495;28;20263;-77
2023/05/04 06:45:38;;;;;;;5.05;2.17;;;;;;;11.30;100.00;100705.03;4990459;28;20236;-78
2023/05/04 06:48:07;;;;;;;4.50;1.95;;;;;;;11.50;100.00;100703.47;4996058;28;20598;-79
2023/05/04 06:50:35;;;;;;;4.43;1.92;;;;;;;11.73;100.00;100717.84;5006145;28;20716;-79
2023/05/04 06:53:10;;;;;;;4.05;1.85;;;11.50;99.90;;;11.74;100.00;100700.19;5008321;28;20254;-78
2023/05/04 06:55:38;;;;;;;5.75;2.45;;;;;;;11.77;100.00;100677.31;4990760;28;20294;-80
2023/05/04 06:58:05;;;;;;;4.95;2.28;;;;;;;11.91;100.00;100674.75;4989823;28;20304;-79
2023/05/04 07:00:33;;;;;;;4.57;1.90;;;;;;;11.93;100.00;100654.44;4989690;28;20252;-79
2023/05/04 07:03:01;;;;;;;4.95;2.25;;;;;;;12.28;100.00;100659.97;4989519;28;20236;-78
2023/05/04 07:05:28;;;;;;;5.78;2.53;;;;;;;11.99;100.00;100606.78;4989598;28;20236;-82
2023/05/04 07:07:57;;;;;;;5.07;2.40;;;;;;;12.17;100.00;100606.00;4990325;28;20259;-79
2023/05/04 07:10:25;;;;;;;5.43;2.30;;;;;;;12.55;100.00;100622.09;4990717;28;20237;-80
2023/05/04 07:12:52;;;;;;;5.22;2.15;;;;;;;12.78;100.00;100638.09;4991499;28;20245;-78
2023/05/04 07:15:20;;;;;;;5.97;2.45;;;12.70;99.90;;;12.81;100.00;100611.56;4990305;28;20244;-78
2023/05/04 07:17:47;;;;;;;4.20;1.98;;;12.70;99.90;;;13.01;100.00;100588.63;4990187;28;20259;-78
2023/05/04 07:20:15;;;;;;;5.35;2.33;;;;;;;13.39;100.00;100604.63;4991263;28;20236;-78
2023/05/04 07:22:42;;;;;;;5.80;2.35;;;;;;;13.23;100.00;100563.00;4988463;28;20287;-78
2023/05/04 07:25:09;;;;;;;5.03;2.20;;;;;;;13.48;100.00;100561.22;4990116;28;20263;-78
2023/05/04 07:27:37;;;;;;;4.03;1.63;;;;;;;13.80;100.00;100553.22;4989936;28;20237;-80
2023/05/04 07:30:07;;;;;;;4.60;1.98;;;13.50;99.90;;;13.81;100.00;100482.31;4991663;28;20255;-79
2023/05/04 07:32:34;;;;;;;4.75;2.05;;;;;;;13.78;100.00;100443.34;4989347;28;20244;-79
2023/05/04 07:35:02;;;;;;;3.85;1.60;;;;;;;13.70;100.00;100427.44;4983218;28;20247;-79
2023/05/04 07:40:13;;;;;;;9.40;4.57;;;;;;;13.65;100.00;100362.78;5292014;23;20322;-75
2023/05/04 07:42:41;;;;;;;6.60;3.22;;;;;;;13.70;100.00;100363.66;4949931;28;20666;-77
2023/05/04 07:45:09;;;;;;;3.95;1.95;;;14.10;99.90;;;14.50;100.00;100393.34;4950195;28;20242;-76
2023/05/04 07:47:37;;;;;;;3.47;1.67;;;;;;;14.55;100.00;100348.97;4943623;28;20246;-76
2023/05/04 07:50:04;;;;;;;4.95;2.22;;;;;;;14.59;100.00;100360.47;4943518;28;20292;-76
2023/05/04 07:52:32;;;;;;;4.78;2.30;;;;;;;14.48;100.00;100333.94;4940556;28;20311;-76
2023/05/04 07:55:00;;;;;;;5.93;2.25;;;;;;;14.36;100.00;100275.50;4948142;28;20238;-75
2023/05/04 07:57:27;;;;;;;4.05;1.73;;;;;;;14.86;100.00;100295.44;4942058;28;20694;-75
2023/05/04 07:59:55;;;;;;;4.18;1.98;;;;;;;15.02;100.00;100270.41;4934458;28;20309;-75
2023/05/04 08:02:22;;;;;;;5.40;2.47;;;;;;;15.21;100.00;100276.38;4942356;28;20265;-75
2023/05/04 08:04:50;;;;;;;3.72;1.67;;;;;;;15.50;100.00;100273.34;4952563;28;20765;-76
2023/05/04 08:07:19;;;;;;;4.40;2.05;;;;;;;15.71;100.00;100254.44;4946650;28;20312;-75
2023/05/04 08:09:46;;;;;;;3.80;2.00;;;;;;;15.66;100.00;100211.84;4949425;28;20246;-76
2023/05/04 08:12:14;;;;;;;3.72;1.85;;;;;;;15.42;100.00;100180.19;4946603;28;20238;-75
2023/05/04 08:14:42;;;;;;;4.60;2.13;;;;;;;15.73;100.00;100187.78;4948676;28;20233;-74
2023/05/04 08:17:09;;;;;;;4.00;1.98;;;;;;;15.73;100.00;100163.78;4978555;28;20280;-74
2023/05/04 08:19:36;;;;;;;4.00;1.80;;;;;;;16.37;100.00;100195.53;4947835;28;20272;-75
2023/05/04 08:22:04;;;;;;;3.70;1.73;;;;;;;16.73;100.00;100166.41;4946237;28;20261;-79
2023/05/04 08:24:31;;;;;;;3.45;1.73;;;;;;;16.24;100.00;100084.63;4945646;28;20242;-75
2023/05/04 08:26:59;;;;;;;4.72;2.25;;;;;;;16.45;100.00;100115.31;4946034;28;20241;-75
2023/05/04 08:29:36;;;;;;;3.78;1.70;;;;;;;16.64;100.00;100103.38;4945333;28;20233;-75
2023/05/04 08:32:04;;;;;;;4.78;2.00;;;;;;;16.36;100.00;100030.13;4936237;29;20248;-75
2023/05/04 08:34:32;;;;;;;5.07;2.13;;;;;;;16.45;100.00;100062.81;4953187;28;20324;-75
2023/05/04 08:37:01;;;;;;;6.25;2.88;;;;;;;16.48;100.00;100069.91;4950744;28;20233;-75
2023/05/04 08:39:29;;;;;;;5.25;2.20;;;;;;;16.57;100.00;100075.91;4952344;28;20237;-75
2023/05/04 08:41:56;;;;;;;4.60;2.00;;;;;;;16.44;100.00;100058.41;4952026;28;20252;-75
2023/05/04 08:44:24;;;;;;;6.32;2.72;;;;;;;16.59;100.00;100047.41;4952805;28;20240;-75
2023/05/04 08:46:53;;;;;;;5.15;2.53;;;16.90;99.90;;;17.04;100.00;100062.50;4951386;28;20266;-76
2023/05/04 08:49:22;;;;;;;5.85;2.38;;;17.20;99.90;;;17.19;100.00;100014.91;4949155;28;20233;-76
2023/05/04 08:51:50;;;;;;;4.82;2.10;;;17.40;99.90;;;17.77;100.00;100053.56;4954238;28;20249;-76
2023/05/04 08:54:19;;;;;;;3.70;1.75;;;17.50;99.90;;;17.60;100.00;99979.09;4950467;28;20235;-76
2023/05/04 08:56:47;;;;;;;3.85;1.95;;;;;;;18.09;100.00;99998.28;4952083;28;20289;-77
2023/05/04 08:59:22;;;;;;;5.82;2.60;;;18.00;99.90;;;18.30;100.00;99973.59;4980259;28;20261;-76
2023/05/04 09:01:55;;;;;;;5.70;2.53;;;18.40;99.90;;;18.53;100.00;99997.00;4948322;28;20300;-76
2023/05/04 09:04:23;;;;;;;3.92;1.88;;;;;;;18.11;100.00;99911.69;4951761;28;20321;-75
2023/05/04 09:06:53;;;;;;;4.22;2.13;;;;;;;18.59;100.00;99943.25;4952619;28;20222;-77
2023/05/04 09:09:23;;;;;;;4.78;2.35;;;18.30;99.90;;;18.34;100.00;99844.09;4950701;28;20245;-77
2023/05/04 09:11:51;;;;;;;3.88;1.80;;;18.40;99.90;;;18.49;100.00;99864.16;4952355;28;20292;-76
2023/05/04 09:14:29;;;;;;;6.47;3.05;;;;;;;19.45;100.00;99917.16;4952372;28;20292;-75
2023/05/04 09:16:56;;;;;;;4.35;2.15;;;;;;;18.60;100.00;99783.47;4951272;28;20773;-74
2023/05/04 09:19:25;;;;;;;2.65;1.10;;;;;;;18.82;100.00;99813.97;4954630;28;20244;-76
2023/05/04 09:21:53;;;;;;;3.28;1.48;;;;;;;18.87;100.00;99812.00;4951805;28;20229;-77
2023/05/04 09:24:28;;;;;;;3.08;1.30;;;18.90;99.90;;;18.57;100.00;99740.72;4954348;28;20244;-76
2023/05/04 09:27:11;;;;;;;5.30;2.33;;;19.30;99.90;;;19.15;100.00;99779.75;4949544;28;20267;-76
2023/05/04 09:29:40;;;;;;;5.80;2.85;;;19.30;99.90;;;19.62;100.00;99817.38;4946488;28;20225;-76
2023/05/04 09:32:14;;;;;;;4.38;2.17;;;19.20;99.90;;;19.24;100.00;99696.31;4946574;28;20268;-74
2023/05/04 09:34:52;;;;;;;4.40;2.08;;;19.30;99.90;;;19.29;100.00;99690.78;4945224;28;20268;-75
2023/05/04 09:37:20;;;;;;;5.15;2.22;;;;;;;18.86;100.00;99604.84;4946512;28;20237;-75
2023/05/04 09:39:57;;;;;;;4.85;2.47;;;19.00;99.90;;;19.47;100.00;99666.78;4947096;28;20709;-77
2023/05/04 09:42:25;;;;;;;4.53;2.20;;;19.60;99.90;;;20.19;100.00;99752.50;4947030;28;20712;-77
2023/05/04 09:45:03;;;;;;;5.15;2.47;;;20.00;99.90;;;20.55;100.00;99720.56;4948014;28;20681;-75
2023/05/04 09:47:32;;;;;;;6.78;2.95;;;21.30;99.90;;;20.36;100.00;99615.72;4976820;28;20233;-75
2023/05/04 09:50:10;;;;;;;4.40;2.10;;;20.60;99.90;;;20.86;100.00;99666.38;4949920;28;20245;-75
2023/05/04 09:52:39;;;;;;;4.90;2.30;;;20.50;99.90;;;20.65;100.00;99547.28;4949948;28;20303;-77
2023/05/04 09:55:10;;;;;;;4.28;1.88;;;20.30;99.90;;;20.25;100.00;99453.34;4950461;28;20228;-78
2023/05/04 09:57:42;;;;;;;4.13;1.75;;;20.70;99.90;;;21.16;100.00;99574.50;4949684;28;20342;-76
2023/05/04 10:00:12;;;;;;;2.42;1.45;;;20.30;99.90;;;20.52;100.00;99403.75;4950522;28;23269;-75
2023/05/04 10:02:40;;;;;;;3.72;1.95;;;;;;;21.13;100.00;99481.41;4941151;29;20280;-78
2023/05/04 10:05:08;;;;;;;4.97;1.83;;;;;;;21.47;100.00;99461.81;4939460;28;20245;-78
2023/05/04 10:07:36;;;;;;;6.38;2.70;;;;;;;20.87;100.00;99394.00;4950172;28;20237;-77
2023/05/04 10:10:06;;;;;;;4.32;1.92;;;20.70;99.90;;;20.41;100.00;99291.50;4940700;28;20385;-77
2023/05/04 10:12:33;;;;;;;4.60;2.20;;;;;;;20.77;100.00;99357.75;4945839;28;20236;-78
2023/05/04 10:15:01;;;;;;;4.97;2.35;;;;;;;21.40;100.00;99377.00;4950673;28;20244;-78
2023/05/04 10:17:54;;;;;;;5.05;2.47;;;21.00;99.90;;;21.01;100.00;99275.94;4945701;28;20245;-85
2023/05/04 10:21:02;;;;;;;3.88;1.92;;;21.20;99.90;;;21.46;100.00;99292.44;4934757;28;20253;-79
2023/05/04 10:24:03;;;;;;;4.43;2.13;;;21.20;99.90;;;20.76;100.00;99184.94;4949265;28;20236;-80
2023/05/04 10:26:58;;;;;;;4.55;2.15;;;21.20;99.90;;;21.23;100.00;99253.31;4944465;28;20229;-77
2023/05/04 10:29:28;;;;;;;5.20;2.08;;;21.70;99.90;;;21.46;100.00;99227.88;4950737;28;20228;-77
2023/05/04 10:31:56;;;;;;;4.10;2.05;;;;;;;21.82;100.00;99250.06;4953917;28;20243;-77
2023/05/04 10:34:32;;;;;;;4.07;1.65;;;21.80;99.90;;;21.91;100.00;99219.94;4956138;28;20303;-77
2023/05/04 10:37:01;;;;;;;3.67;1.77;;;21.60;99.90;;;21.38;100.00;99175.38;4952621;28;20241;-76
2023/05/04 10:39:31;;;;;;;5.05;2.10;;;21.50;99.90;;;21.29;100.00;99137.38;4952578;28;20265;-82
2023/05/04 10:42:06;;;;;;;5.93;2.78;;;22.10;99.90;;;22.55;100.00;99263.91;4944476;28;20237;-80
2023/05/04 10:44:36;;;;;;;5.47;2.17;;;22.70;99.90;;;22.66;100.00;99256.94;4951040;28;20295;-81
2023/05/04 10:47:07;;;;;;;5.93;2.42;;;22.70;99.60;;;22.52;100.00;99134.78;4950116;28;20233;-85
2023/05/04 10:49:35;;;;;;;4.65;2.00;;;22.60;99.90;;;22.63;100.00;99126.91;4944662;28;20241;-81
2023/05/04 10:52:16;;;;;;;5.28;2.38;;;23.10;99.90;;;23.34;100.00;99223.19;4920201;29;20237;-78
2023/05/04 10:54:45;;;;;;;4.00;1.67;;;;;;;22.97;100.00;99025.97;4944413;28;20247;-77
2023/05/04 10:57:16;;;;;;;5.05;2.13;;;22.80;99.90;;;22.92;100.00;99030.78;4951243;28;20346;-81
2023/05/04 10:59:57;;;;;;;5.35;1.95;;;23.30;99.90;;;23.59;100.00;99112.81;4948741;28;20236;-81
2023/05/04 11:02:26;;;;;;;6.13;2.47;;;23.60;97.80;;;23.12;100.00;98948.59;4935931;28;20275;-82
2023/05/04 11:05:04;;;;;;;4.75;2.00;;;23.10;99.10;;;23.03;100.00;98987.81;4949337;28;20247;-77
2023/05/04 11:07:37;;;;;;;6.57;2.22;;;23.70;97.70;;;23.84;100.00;98987.88;4946220;28;20264;-77
2023/05/04 11:10:08;;;;;;;9.10;3.20;;;24.10;99.90;;;23.93;100.00;99033.13;4946358;28;20295;-82
2023/05/04 11:12:37;;;;;;;2.97;1.50;;;23.30;99.20;;;23.06;100.00;98913.97;4950741;28;20238;-78
2023/05/04 11:15:10;;;;;;;5.25;2.08;;;23.80;99.90;;;24.23;100.00;99063.44;4951990;28;20236;-77